createdAt,value
2023-01-17T00:02:02.825Z,13.68
2023-01-17T00:04:50.069Z,13.07
2023-01-17T00:07:39.032Z,13.38
2023-01-17T00:10:10.670Z,13.23
2023-01-17T00:12:38.176Z,14.05
2023-01-17T00:15:06.845Z,13.98
2023-01-17T00:17:34.029Z,15.05
2023-01-17T00:20:23.050Z,14.98
2023-01-17T00:23:10.169Z,15.40
2023-01-17T00:25:59.293Z,17.52
2023-01-17T00:28:27.636Z,18.13
2023-01-17T00:30:54.740Z,18.52
2023-01-17T00:33:23.356Z,19.63
2023-01-17T00:35:52.074Z,17.13
2023-01-17T00:38:22.770Z,17.70
2023-01-17T00:40:50.704Z,17.45
2023-01-17T00:43:43.482Z,18.63
2023-01-17T00:46:31.286Z,19.25
2023-01-17T00:49:18.487Z,19.08
2023-01-17T00:52:05.552Z,18.90
2023-01-17T00:54:52.764Z,19.10
2023-01-17T00:57:39.939Z,18.38
2023-01-17T01:00:27.900Z,18.75
2023-01-17T01:03:14.961Z,18.90
2023-01-17T01:06:02.010Z,18.88
2023-01-17T01:08:49.864Z,19.20
2023-01-17T01:11:40.070Z,18.33
2023-01-17T01:14:29.980Z,20.15
2023-01-17T01:17:31.939Z,19.42
2023-01-17T01:20:19.557Z,19.17
2023-01-17T01:23:07.796Z,17.38
2023-01-17T01:25:56.427Z,17.88
2023-01-17T01:28:43.691Z,18.00
2023-01-17T01:33:48.807Z,15.65
2023-01-17T01:36:16.597Z,15.80
2023-01-17T01:38:44.084Z,16.63
2023-01-17T01:41:11.203Z,16.00
2023-01-17T01:43:48.203Z,15.70
2023-01-17T01:46:22.104Z,16.08
2023-01-17T01:48:55.469Z,16.05
2023-01-17T01:51:28.179Z,16.35
2023-01-17T01:54:01.533Z,15.48
2023-01-17T01:56:31.426Z,15.20
2023-01-17T01:59:03.263Z,23.77
2023-01-17T02:01:31.650Z,17.80
2023-01-17T02:03:59.272Z,17.95
2023-01-17T02:06:32.559Z,18.08
2023-01-17T02:09:07.258Z,15.18
2023-01-17T02:11:38.130Z,14.73
2023-01-17T02:14:05.865Z,15.07
2023-01-17T02:17:01.763Z,16.52
2023-01-17T02:19:48.892Z,14.52
2023-01-17T02:22:37.375Z,14.85
2023-01-17T02:25:15.859Z,14.52
2023-01-17T02:28:13.730Z,15.23
2023-01-17T02:30:46.170Z,14.50
2023-01-17T02:33:39.473Z,15.20
2023-01-17T02:36:13.361Z,12.65
2023-01-17T02:38:46.567Z,10.95
2023-01-17T02:41:22.023Z,14.15
2023-01-17T02:43:51.679Z,13.82
2023-01-17T02:46:18.935Z,14.57
2023-01-17T02:48:47.887Z,14.00
2023-01-17T02:51:22.615Z,14.82
2023-01-17T02:54:10.816Z,14.27
2023-01-17T02:56:53.216Z,12.75
2023-01-17T02:59:26.721Z,13.75
2023-01-17T03:02:01.411Z,14.82
2023-01-17T03:04:38.470Z,13.95
2023-01-17T03:07:16.451Z,14.77
2023-01-17T03:09:46.899Z,14.30
2023-01-17T03:12:14.373Z,13.98
2023-01-17T03:14:41.565Z,13.68
2023-01-17T03:17:09.209Z,14.25
2023-01-17T03:19:36.390Z,14.30
2023-01-17T03:22:03.762Z,13.45
2023-01-17T03:24:31.056Z,14.40
2023-01-17T03:26:58.725Z,13.82
2023-01-17T03:29:25.899Z,13.85
2023-01-17T03:31:53.180Z,14.13
2023-01-17T03:34:20.357Z,14.32
2023-01-17T03:36:47.655Z,14.75
2023-01-17T03:39:14.776Z,14.98
2023-01-17T03:41:42.310Z,14.73
2023-01-17T03:44:09.566Z,14.75
2023-01-17T03:46:37.009Z,14.35
2023-01-17T03:49:04.213Z,13.93
2023-01-17T03:51:31.545Z,14.38
2023-01-17T03:53:58.762Z,14.60
2023-01-17T03:56:26.090Z,14.32
2023-01-17T03:58:53.789Z,14.35
2023-01-17T04:01:21.113Z,13.55
2023-01-17T04:03:48.851Z,14.20
2023-01-17T04:06:16.776Z,13.65
2023-01-17T04:08:44.104Z,14.40
2023-01-17T04:11:11.380Z,13.73
2023-01-17T04:13:38.686Z,15.00
2023-01-17T04:16:06.307Z,16.23
2023-01-17T04:18:33.523Z,14.82
2023-01-17T04:21:00.639Z,14.30
2023-01-17T04:23:27.917Z,15.63
2023-01-17T04:25:55.098Z,15.73
2023-01-17T04:28:22.231Z,16.33
2023-01-17T04:30:49.546Z,16.55
2023-01-17T04:33:16.708Z,16.90
2023-01-17T04:35:43.894Z,16.88
2023-01-17T04:38:11.465Z,17.13
2023-01-17T04:40:38.803Z,17.63
2023-01-17T04:43:06.201Z,18.23
2023-01-17T04:45:33.404Z,19.42
2023-01-17T04:48:08.495Z,18.23
2023-01-17T04:50:35.731Z,19.13
2023-01-17T04:53:02.929Z,17.85
2023-01-17T04:55:30.136Z,18.15
2023-01-17T04:57:57.388Z,19.70
2023-01-17T05:00:24.501Z,17.63
2023-01-17T05:02:52.283Z,19.05
2023-01-17T05:05:19.700Z,19.50
2023-01-17T05:07:54.732Z,18.55
2023-01-17T05:10:22.467Z,19.90
2023-01-17T05:12:59.227Z,18.77
2023-01-17T05:15:27.152Z,18.75
2023-01-17T05:17:55.240Z,19.52
2023-01-17T05:20:26.735Z,19.45
2023-01-17T05:22:56.640Z,18.58
2023-01-17T05:25:26.606Z,19.00
2023-01-17T05:27:54.102Z,20.02
2023-01-17T05:30:22.266Z,20.48
2023-01-17T05:33:15.283Z,19.13
2023-01-17T05:35:42.595Z,19.13
2023-01-17T05:38:09.812Z,19.35
2023-01-17T05:40:37.447Z,17.25
2023-01-17T05:43:05.078Z,18.77
2023-01-17T05:45:34.390Z,17.95
2023-01-17T05:48:02.669Z,20.08
2023-01-17T05:50:33.892Z,18.60
2023-01-17T05:53:08.268Z,18.83
2023-01-17T05:55:36.691Z,19.23
2023-01-17T05:58:04.913Z,17.92
2023-01-17T06:00:32.947Z,17.80
2023-01-17T06:03:01.387Z,19.05
2023-01-17T06:05:30.115Z,17.73
2023-01-17T06:07:58.539Z,18.38
2023-01-17T06:10:27.292Z,18.38
2023-01-17T06:13:05.118Z,19.42
2023-01-17T06:15:33.609Z,18.80
2023-01-17T06:18:10.514Z,19.45
2023-01-17T06:20:39.974Z,18.02
2023-01-17T06:23:10.818Z,18.55
2023-01-17T06:25:44.160Z,19.25
2023-01-17T06:28:15.866Z,14.45
2023-01-17T06:30:45.658Z,17.98
2023-01-17T06:33:16.802Z,18.50
2023-01-17T06:35:50.557Z,21.05
2023-01-17T06:38:19.633Z,21.27
2023-01-17T06:40:49.019Z,20.90
2023-01-17T06:43:18.596Z,21.58
2023-01-17T06:45:48.693Z,22.05
2023-01-17T06:48:18.896Z,23.67
2023-01-17T06:50:49.043Z,22.65
2023-01-17T06:53:16.504Z,22.73
2023-01-17T06:55:45.830Z,23.13
2023-01-17T06:58:15.267Z,24.25
2023-01-17T07:00:45.291Z,25.08
2023-01-17T07:03:23.647Z,26.13
2023-01-17T07:05:53.114Z,26.48
2023-01-17T07:08:22.472Z,23.02
2023-01-17T07:10:51.296Z,21.08
2023-01-17T07:13:19.917Z,22.52
2023-01-17T07:15:47.645Z,23.48
2023-01-17T07:18:21.000Z,19.88
2023-01-17T07:20:51.271Z,28.63
2023-01-17T07:23:22.157Z,24.60
2023-01-17T07:25:56.615Z,20.48
2023-01-17T07:28:25.591Z,25.35
2023-01-17T07:30:54.924Z,24.23
2023-01-17T07:33:23.832Z,19.33
2023-01-17T07:35:54.251Z,16.90
2023-01-17T07:38:22.608Z,17.10
2023-01-17T07:40:52.126Z,16.42
2023-01-17T07:43:20.643Z,14.40
2023-01-17T07:45:52.352Z,13.02
2023-01-17T07:48:22.082Z,13.32
2023-01-17T07:50:55.836Z,13.88
2023-01-17T07:53:24.605Z,10.45
2023-01-17T07:55:53.611Z,12.93
2023-01-17T07:58:23.033Z,15.05
2023-01-17T08:00:51.992Z,13.20
2023-01-17T08:03:21.659Z,13.13
2023-01-17T08:05:58.748Z,13.27
2023-01-17T08:08:28.741Z,12.82
2023-01-17T08:10:58.140Z,13.45
2023-01-17T08:13:29.090Z,13.57
2023-01-17T08:16:03.117Z,14.88
2023-01-17T08:18:33.157Z,14.25
2023-01-17T08:21:03.698Z,13.55
2023-01-17T08:23:34.010Z,13.65
2023-01-17T08:26:04.595Z,14.30
2023-01-17T08:28:33.149Z,13.63
2023-01-17T08:31:11.221Z,13.82
2023-01-17T08:33:41.370Z,13.55
2023-01-17T08:36:12.883Z,12.85
2023-01-17T08:38:42.466Z,12.85
2023-01-17T08:41:11.234Z,13.40
2023-01-17T08:43:40.417Z,13.23
2023-01-17T08:46:07.950Z,13.70
2023-01-17T08:48:35.994Z,12.98
2023-01-17T08:51:04.679Z,13.18
2023-01-17T08:53:34.045Z,13.15
2023-01-17T08:56:02.762Z,14.10
2023-01-17T08:58:31.480Z,13.85
2023-01-17T09:01:04.900Z,14.07
2023-01-17T09:03:35.342Z,15.05
2023-01-17T09:06:11.066Z,14.07
2023-01-17T09:08:39.498Z,12.52
2023-01-17T09:11:10.530Z,13.02
2023-01-17T09:13:41.780Z,12.32
2023-01-17T09:16:11.500Z,12.48
2023-01-17T09:18:39.959Z,12.68
2023-01-17T09:21:18.533Z,12.80
2023-01-17T09:23:48.021Z,12.70
2023-01-17T09:26:32.087Z,12.30
2023-01-17T09:28:59.970Z,8.82
2023-01-17T09:31:28.782Z,12.38
2023-01-17T09:33:58.977Z,12.38
2023-01-17T09:36:30.130Z,12.18
2023-01-17T09:38:59.216Z,11.20
2023-01-17T09:41:32.063Z,12.35
2023-01-17T09:44:03.933Z,11.07
2023-01-17T09:46:40.937Z,11.90
2023-01-17T09:49:15.979Z,11.43
2023-01-17T09:51:45.900Z,12.02
2023-01-17T09:54:23.981Z,10.48
2023-01-17T09:57:02.003Z,11.70
2023-01-17T10:00:03.277Z,10.75
2023-01-17T10:02:56.013Z,10.88
2023-01-17T10:05:54.846Z,12.02
2023-01-17T10:08:44.690Z,12.10
2023-01-17T10:11:37.390Z,11.80
2023-01-17T10:14:24.470Z,11.50
2023-01-17T10:17:16.504Z,12.02
2023-01-17T10:19:53.350Z,12.45
2023-01-17T10:22:31.220Z,11.48
2023-01-17T10:25:25.659Z,12.20
2023-01-17T10:28:04.781Z,8.87
2023-01-17T10:30:39.245Z,11.35
2023-01-17T10:33:16.541Z,12.00
2023-01-17T10:35:57.117Z,12.23
2023-01-17T10:38:31.912Z,12.00
2023-01-17T10:41:04.730Z,12.43
2023-01-17T10:43:51.752Z,12.38
2023-01-17T10:46:28.596Z,12.63
2023-01-17T10:48:56.646Z,12.80
2023-01-17T10:51:43.939Z,12.15
2023-01-17T10:54:36.413Z,12.15
2023-01-17T10:57:03.911Z,11.80
2023-01-17T10:59:34.411Z,12.32
2023-01-17T11:02:07.593Z,12.05
2023-01-17T11:04:36.984Z,11.90
2023-01-17T11:07:17.043Z,11.65
2023-01-17T11:09:46.605Z,11.50
2023-01-17T11:12:35.329Z,12.77
2023-01-17T11:15:21.673Z,11.85
2023-01-17T11:17:53.270Z,11.93
2023-01-17T11:20:28.178Z,11.80
2023-01-17T11:23:16.327Z,10.75
2023-01-17T11:25:49.566Z,11.07
2023-01-17T11:28:23.281Z,11.13
2023-01-17T11:30:54.803Z,9.20
2023-01-17T11:33:59.487Z,11.80
2023-01-17T11:36:29.317Z,12.25
2023-01-17T11:39:05.535Z,11.40
2023-01-17T11:41:36.792Z,11.20
2023-01-17T11:44:21.107Z,11.45
2023-01-17T11:46:48.862Z,11.88
2023-01-17T11:49:26.001Z,12.02
2023-01-17T11:51:56.328Z,12.40
2023-01-17T11:54:26.435Z,13.43
2023-01-17T11:57:02.263Z,13.02
2023-01-17T11:59:37.472Z,12.98
2023-01-17T12:02:38.176Z,12.73
2023-01-17T12:05:45.120Z,11.82
2023-01-17T12:08:51.394Z,11.98
2023-01-17T12:11:29.070Z,14.15
2023-01-17T12:14:07.622Z,15.00
2023-01-17T12:17:11.622Z,15.48
2023-01-17T12:20:01.695Z,16.15
2023-01-17T12:22:47.687Z,16.92
2023-01-17T12:25:45.249Z,17.75
2023-01-17T12:28:37.254Z,17.52
2023-01-17T12:31:44.354Z,17.65
2023-01-17T12:34:26.459Z,18.00
2023-01-17T12:37:02.219Z,19.08
2023-01-17T12:39:37.339Z,18.17
2023-01-17T12:42:09.023Z,18.23
2023-01-17T12:44:46.657Z,18.17
2023-01-17T12:47:16.091Z,17.88
2023-01-17T12:49:54.076Z,19.20
2023-01-17T12:52:42.600Z,19.58
2023-01-17T12:55:19.641Z,19.20
2023-01-17T12:57:56.404Z,18.20
2023-01-17T13:00:25.635Z,17.33
2023-01-17T13:03:16.951Z,19.27
2023-01-17T13:05:47.079Z,20.95
2023-01-17T13:08:34.545Z,22.00
2023-01-17T13:11:23.400Z,20.65
2023-01-17T13:13:52.353Z,19.65
2023-01-17T13:16:29.782Z,19.35
2023-01-17T13:19:07.717Z,17.83
2023-01-17T13:21:35.560Z,16.52
2023-01-17T13:24:36.500Z,16.20
2023-01-17T13:27:23.708Z,16.08
2023-01-17T13:30:18.169Z,15.68
2023-01-17T13:32:46.381Z,11.30
2023-01-17T13:35:27.251Z,14.43
2023-01-17T13:38:15.281Z,13.55
2023-01-17T13:40:49.765Z,15.05
2023-01-17T13:43:30.388Z,14.20
2023-01-17T13:46:03.743Z,14.23
2023-01-17T13:48:33.397Z,14.40
2023-01-17T13:51:04.043Z,13.93
2023-01-17T13:53:34.913Z,14.45
2023-01-17T13:56:11.010Z,13.48
2023-01-17T13:58:58.657Z,14.05
2023-01-17T14:01:38.680Z,13.45
2023-01-17T14:04:13.556Z,12.88
2023-01-17T14:06:49.209Z,12.93
2023-01-17T14:09:17.463Z,12.48
2023-01-17T14:11:57.735Z,13.23
2023-01-17T14:14:42.651Z,13.20
2023-01-17T14:17:33.012Z,13.52
2023-01-17T14:20:17.505Z,12.25
2023-01-17T14:22:54.401Z,9.77
2023-01-17T14:25:28.937Z,12.82
2023-01-17T14:28:01.564Z,13.68
2023-01-17T14:30:37.843Z,14.02
2023-01-17T14:33:09.943Z,17.17
2023-01-17T14:35:51.529Z,16.83
2023-01-17T14:38:23.806Z,19.52
2023-01-17T14:40:58.429Z,19.15
2023-01-17T14:43:28.736Z,20.85
2023-01-17T14:46:00.849Z,20.98
2023-01-17T14:48:31.141Z,17.17
2023-01-17T14:51:01.076Z,18.63
2023-01-17T14:53:31.630Z,18.10
2023-01-17T14:56:00.618Z,19.70
2023-01-17T14:58:31.471Z,19.48
2023-01-17T15:01:18.212Z,19.98
2023-01-17T15:03:47.193Z,20.50
2023-01-17T15:06:19.417Z,20.52
2023-01-17T15:08:48.502Z,21.17
2023-01-17T15:11:22.653Z,19.60
2023-01-17T15:16:25.714Z,18.65
2023-01-17T15:18:56.178Z,17.88
2023-01-17T15:21:27.379Z,19.38
2023-01-17T15:23:58.755Z,16.92
2023-01-17T15:26:33.237Z,18.77
2023-01-17T15:29:06.671Z,18.92
2023-01-17T15:31:51.132Z,16.33
2023-01-17T15:34:25.827Z,16.15
2023-01-17T15:36:58.684Z,16.33
2023-01-17T15:39:34.039Z,14.57
2023-01-17T15:42:05.630Z,14.43
2023-01-17T15:44:48.226Z,14.77
2023-01-17T15:47:33.942Z,13.32
2023-01-17T15:52:29.998Z,12.68
2023-01-17T15:55:10.818Z,14.18
2023-01-17T15:57:44.961Z,14.10
2023-01-17T16:00:15.689Z,14.07
2023-01-17T16:02:45.800Z,13.07
2023-01-17T16:05:33.762Z,13.73
2023-01-17T16:08:02.480Z,13.77
2023-01-17T16:10:32.701Z,14.25
2023-01-17T16:13:00.689Z,18.25
2023-01-17T16:15:29.287Z,18.85
2023-01-17T16:18:06.987Z,14.25
2023-01-17T16:20:41.249Z,14.38
2023-01-17T16:23:11.969Z,14.30
2023-01-17T16:25:40.440Z,16.30
2023-01-17T16:28:08.093Z,14.25
2023-01-17T16:30:36.015Z,14.55
2023-01-17T16:33:04.078Z,14.20
2023-01-17T16:35:34.568Z,14.05
2023-01-17T16:38:05.396Z,15.95
2023-01-17T16:40:40.482Z,16.40
2023-01-17T16:43:08.059Z,13.90
2023-01-17T16:45:42.628Z,15.85
2023-01-17T16:50:48.200Z,15.88
2023-01-17T16:53:17.277Z,15.73
2023-01-17T16:55:45.713Z,16.65
2023-01-17T16:58:12.909Z,15.55
2023-01-17T17:00:41.529Z,15.93
2023-01-17T17:03:16.102Z,15.75
2023-01-17T17:05:46.000Z,16.15
2023-01-17T17:08:14.920Z,16.25
2023-01-17T17:10:42.405Z,15.73
2023-01-17T17:13:09.878Z,15.23
2023-01-17T17:15:42.261Z,16.92
2023-01-17T17:18:15.346Z,15.63
2023-01-17T17:20:43.824Z,16.98
2023-01-17T17:23:11.618Z,17.15
2023-01-17T17:25:39.445Z,17.63
2023-01-17T17:28:07.247Z,17.50
2023-01-17T17:30:36.246Z,16.63
2023-01-17T17:33:05.596Z,16.63
2023-01-17T17:35:35.907Z,15.23
2023-01-17T17:38:05.792Z,16.33
2023-01-17T17:40:36.104Z,16.30
2023-01-17T17:43:03.542Z,16.35
2023-01-17T17:45:32.011Z,15.48
2023-01-17T17:47:59.539Z,14.50
2023-01-17T17:50:27.103Z,15.02
2023-01-17T17:52:54.721Z,15.20
2023-01-17T17:55:22.160Z,14.60
2023-01-17T17:57:49.983Z,15.60
2023-01-17T18:00:17.962Z,15.30
2023-01-17T18:02:46.193Z,13.70
2023-01-17T18:05:13.415Z,14.45
2023-01-17T18:07:42.121Z,14.30
2023-01-17T18:10:10.125Z,13.70
2023-01-17T18:12:37.547Z,12.55
2023-01-17T18:15:06.138Z,14.05
2023-01-17T18:17:33.539Z,13.50
2023-01-17T18:20:02.327Z,13.82
2023-01-17T18:22:29.848Z,13.70
2023-01-17T18:24:57.385Z,13.75
2023-01-17T18:27:25.109Z,13.70
2023-01-17T18:29:52.667Z,14.45
2023-01-17T18:32:21.000Z,14.25
2023-01-17T18:34:48.376Z,14.52
2023-01-17T18:37:16.510Z,14.95
2023-01-17T18:39:45.137Z,13.88
2023-01-17T18:42:12.366Z,13.88
2023-01-17T18:44:39.668Z,13.55
2023-01-17T18:47:07.121Z,13.20
2023-01-17T18:49:35.550Z,14.05
2023-01-17T18:52:03.070Z,14.82
2023-01-17T18:54:32.094Z,14.82
2023-01-17T18:56:59.948Z,15.35
2023-01-17T18:59:27.230Z,14.85
2023-01-17T19:01:55.095Z,15.52
2023-01-17T19:04:22.750Z,13.73
2023-01-17T19:06:50.399Z,14.07
2023-01-17T19:09:17.848Z,13.38
2023-01-17T19:11:47.574Z,13.18
2023-01-17T19:14:16.047Z,13.52
2023-01-17T19:16:43.929Z,12.93
2023-01-17T19:19:16.126Z,13.63
2023-01-17T19:21:44.466Z,13.27
2023-01-17T19:24:13.511Z,13.77
2023-01-17T19:26:41.874Z,13.38
2023-01-17T19:29:10.439Z,12.55
2023-01-17T19:31:42.965Z,13.15
2023-01-17T19:34:13.964Z,12.43
2023-01-17T19:36:42.330Z,12.90
2023-01-17T19:39:10.116Z,12.15
2023-01-17T19:41:42.828Z,12.48
2023-01-17T19:44:12.043Z,12.88
2023-01-17T19:46:39.729Z,12.70
2023-01-17T19:49:08.820Z,12.80
2023-01-17T19:51:37.353Z,13.20
2023-01-17T19:54:06.691Z,12.38
2023-01-17T19:56:34.523Z,12.93
2023-01-17T19:59:02.676Z,13.48
2023-01-17T20:01:33.026Z,12.75
2023-01-17T20:04:02.577Z,13.55
2023-01-17T20:06:33.513Z,14.50
2023-01-17T20:09:01.704Z,14.18
2023-01-17T20:11:29.413Z,13.48
2023-01-17T20:13:58.385Z,12.90
2023-01-17T20:16:27.836Z,13.93
2023-01-17T20:18:55.491Z,13.70
2023-01-17T20:21:24.963Z,13.75
2023-01-17T20:23:54.746Z,14.02
2023-01-17T20:26:29.350Z,15.43
2023-01-17T20:31:26.191Z,15.00
2023-01-17T20:33:55.381Z,14.75
2023-01-17T20:36:25.572Z,14.05
2023-01-17T20:38:54.975Z,14.68
2023-01-17T20:41:31.570Z,13.57
2023-01-17T20:44:01.267Z,13.82
2023-01-17T20:46:33.475Z,12.98
2023-01-17T20:49:01.851Z,13.30
2023-01-17T20:51:30.030Z,14.05
2023-01-17T20:54:00.513Z,14.05
2023-01-17T20:56:30.509Z,13.90
2023-01-17T20:58:58.027Z,14.07
2023-01-17T21:01:25.592Z,14.18
2023-01-17T21:03:54.090Z,13.73
2023-01-17T21:06:23.120Z,14.60
2023-01-17T21:08:50.957Z,14.90
2023-01-17T21:11:22.329Z,15.88
2023-01-17T21:13:51.586Z,14.95
2023-01-17T21:16:22.674Z,15.60
2023-01-17T21:18:52.187Z,14.13
2023-01-17T21:21:23.717Z,15.43
2023-01-17T21:23:53.549Z,16.38
2023-01-17T21:26:22.953Z,15.80
2023-01-17T21:28:51.062Z,15.65
2023-01-17T21:31:29.382Z,15.10
2023-01-17T21:33:57.791Z,15.65
2023-01-17T21:36:29.437Z,15.48
2023-01-17T21:38:58.751Z,15.60
2023-01-17T21:41:28.989Z,16.30
2023-01-17T21:43:59.396Z,16.48
2023-01-17T21:46:27.854Z,15.70
2023-01-17T21:48:56.907Z,14.93
2023-01-17T21:51:25.069Z,16.00
2023-01-17T21:53:52.509Z,15.30
2023-01-17T21:56:39.653Z,16.02
2023-01-17T21:59:07.263Z,17.02
2023-01-17T22:01:34.490Z,15.95
2023-01-17T22:04:03.602Z,17.23
2023-01-17T22:06:34.676Z,16.95
2023-01-17T22:09:06.322Z,17.30
2023-01-17T22:11:36.892Z,17.20
2023-01-17T22:14:05.223Z,17.25
2023-01-17T22:16:32.924Z,17.65
2023-01-17T22:19:00.712Z,17.00
2023-01-17T22:21:29.121Z,16.88
2023-01-17T22:23:59.387Z,17.67
2023-01-17T22:26:30.448Z,17.30
2023-01-17T22:29:02.446Z,17.65
2023-01-17T22:31:30.696Z,16.20
2023-01-17T22:34:02.943Z,17.67
2023-01-17T22:36:33.686Z,17.92
2023-01-17T22:39:02.392Z,17.15
2023-01-17T22:41:31.492Z,18.08
2023-01-17T22:44:02.319Z,17.45
2023-01-17T22:46:32.606Z,17.30
2023-01-17T22:49:00.620Z,17.92
2023-01-17T22:51:29.259Z,18.40
2023-01-17T22:53:59.239Z,16.88
2023-01-17T22:56:29.398Z,17.83
2023-01-17T22:58:57.610Z,17.60
2023-01-17T23:01:28.699Z,17.30
2023-01-17T23:04:00.153Z,17.95
2023-01-17T23:06:31.154Z,18.63
2023-01-17T23:09:01.748Z,19.75
2023-01-17T23:11:41.340Z,18.80
2023-01-17T23:14:30.060Z,18.40
2023-01-17T23:17:21.461Z,17.30
2023-01-17T23:19:52.555Z,19.00
2023-01-17T23:22:24.632Z,17.88
2023-01-17T23:24:54.010Z,17.95
2023-01-17T23:27:44.950Z,18.88
2023-01-17T23:30:18.116Z,18.30
2023-01-17T23:32:51.624Z,17.73
2023-01-17T23:35:21.514Z,19.40
2023-01-17T23:38:09.062Z,18.98
2023-01-17T23:40:38.131Z,18.67
2023-01-17T23:43:26.693Z,18.63
2023-01-17T23:45:54.876Z,17.02
2023-01-17T23:48:26.101Z,18.15
2023-01-17T23:50:59.690Z,19.20
2023-01-17T23:53:27.579Z,18.27
2023-01-17T23:55:57.923Z,18.10
2023-01-17T23:58:28.050Z,18.73
